Ucluelet, Canada
Current Conditions -  °F | °C
As of 3:00 PM on Monday 20 Oct 2014 (Local Time) from CYAZ Reporting Station
Broken Clouds Broken Clouds  
Wind Chill: 16°   Ceiling: 23000
Heat Index: 16°   Visibility: 15mi
Dew Point: 14°   Wind: 8mph
Humidity: 88%   Direction: 170°S
Pressure: 29.68"   Gusts: NA
Location:  48.94°N, 125.54°W
Report Text: CYAZ 202200Z 17007KT 15SM FEW014 FEW020TCU SCT150 BKN230 16/14 A2968 RMK CF1TCU1AC2CC1 TCU ALQDS SLP049 DENSITY ALT 400FT
Loading
Personal Weather Stations






























Interactive Weather Map
Tropical Storm Tracking
New forecast layout! Learn more

10-Day Weather Forecast

Advertisements
Track Severe Weather on mobile